sensor_id;sensor_type;location;lat;lon;timestamp;pressure;altitude;pressure_sealevel;temperature;humidity
8697;BME280;4385;48.848;8.924;2022-12-29T00:01:19;96924.22;;;16.23;100.00
8697;BME280;4385;48.848;8.924;2022-12-29T00:03:45;96924.25;;;16.22;100.00
8697;BME280;4385;48.848;8.924;2022-12-29T00:06:11;96913.25;;;16.21;100.00
8697;BME280;4385;48.848;8.924;2022-12-29T00:08:36;96916.66;;;16.20;100.00
8697;BME280;4385;48.848;8.924;2022-12-29T00:11:09;96916.66;;;16.20;100.00
8697;BME280;4385;48.848;8.924;2022-12-29T00:13:34;96913.31;;;16.18;100.00
8697;BME280;4385;48.848;8.924;2022-12-29T00:16:18;96906.56;;;16.17;100.00
8697;BME280;4385;48.848;8.924;2022-12-29T00:18:44;96906.56;;;16.17;100.00
8697;BME280;4385;48.848;8.924;2022-12-29T00:21:18;96897.28;;;16.16;100.00
8697;BME280;4385;48.848;8.924;2022-12-29T00:24:02;96904.94;;;16.14;100.00
8697;BME280;4385;48.848;8.924;2022-12-29T00:26:49;96901.53;;;16.14;100.00
8697;BME280;4385;48.848;8.924;2022-12-29T00:29:33;96899.00;;;16.14;100.00
8697;BME280;4385;48.848;8.924;2022-12-29T00:32:17;96901.53;;;16.14;100.00
8697;BME280;4385;48.848;8.924;2022-12-29T00:35:01;96898.97;;;16.15;100.00
8697;BME280;4385;48.848;8.924;2022-12-29T00:37:41;96898.97;;;16.15;100.00
8697;BME280;4385;48.848;8.924;2022-12-29T00:40:26;96904.91;;;16.16;100.00
8697;BME280;4385;48.848;8.924;2022-12-29T00:43:09;96904.06;;;16.15;100.00
8697;BME280;4385;48.848;8.924;2022-12-29T00:45:53;96894.75;;;16.16;100.00
8697;BME280;4385;48.848;8.924;2022-12-29T00:48:18;96894.75;;;16.16;100.00
8697;BME280;4385;48.848;8.924;2022-12-29T00:51:04;96890.50;;;16.15;100.00
8697;BME280;4385;48.848;8.924;2022-12-29T00:53:29;96893.03;;;16.15;100.00
8697;BME280;4385;48.848;8.924;2022-12-29T00:55:54;96894.81;;;16.13;100.00
8697;BME280;4385;48.848;8.924;2022-12-29T00:58:19;96892.25;;;16.13;100.00
8697;BME280;4385;48.848;8.924;2022-12-29T01:00:45;96893.97;;;16.12;100.00
8697;BME280;4385;48.848;8.924;2022-12-29T01:03:10;96902.44;;;16.13;100.00
8697;BME280;4385;48.848;8.924;2022-12-29T01:05:36;96898.19;;;16.12;100.00
8697;BME280;4385;48.848;8.924;2022-12-29T01:08:02;96897.38;;;16.11;100.00
8697;BME280;4385;48.848;8.924;2022-12-29T01:10:27;96900.78;;;16.10;100.00
8697;BME280;4385;48.848;8.924;2022-12-29T01:12:52;96901.69;;;16.07;100.00
8697;BME280;4385;48.848;8.924;2022-12-29T01:15:18;96907.63;;;16.08;100.00
8697;BME280;4385;48.848;8.924;2022-12-29T01:17:43;96908.44;;;16.08;100.00
8697;BME280;4385;48.848;8.924;2022-12-29T01:20:09;96910.16;;;16.08;100.00
8697;BME280;4385;48.848;8.924;2022-12-29T01:22:34;96903.38;;;16.07;100.00
8697;BME280;4385;48.848;8.924;2022-12-29T01:25:00;96900.03;;;16.06;100.00
8697;BME280;4385;48.848;8.924;2022-12-29T01:27:25;96908.50;;;16.05;100.00
8697;BME280;4385;48.848;8.924;2022-12-29T01:29:51;96908.50;;;16.05;100.00
8697;BME280;4385;48.848;8.924;2022-12-29T01:32:16;96903.41;;;16.05;100.00
8697;BME280;4385;48.848;8.924;2022-12-29T01:34:41;96905.91;;;16.07;100.00
8697;BME280;4385;48.848;8.924;2022-12-29T01:37:06;96909.34;;;16.06;100.00
8697;BME280;4385;48.848;8.924;2022-12-29T01:39:32;96917.78;;;16.08;100.00
8697;BME280;4385;48.848;8.924;2022-12-29T01:41:57;96907.63;;;16.08;100.00
8697;BME280;4385;48.848;8.924;2022-12-29T01:47:15;96904.19;;;16.09;100.00
8697;BME280;4385;48.848;8.924;2022-12-29T01:49:43;96895.69;;;16.10;100.00
8697;BME280;4385;48.848;8.924;2022-12-29T01:52:09;96898.25;;;16.08;100.00
8697;BME280;4385;48.848;8.924;2022-12-29T01:54:43;96887.28;;;16.08;100.00
8697;BME280;4385;48.848;8.924;2022-12-29T01:57:17;96884.78;;;16.06;100.00
8697;BME280;4385;48.848;8.924;2022-12-29T01:59:56;96878.84;;;16.06;100.00
8697;BME280;4385;48.848;8.924;2022-12-29T02:02:23;96878.00;;;16.05;100.00
8697;BME280;4385;48.848;8.924;2022-12-29T02:04:49;96878.88;;;16.04;100.00
8697;BME280;4385;48.848;8.924;2022-12-29T02:07:18;96874.69;;;16.03;100.00
8697;BME280;4385;48.848;8.924;2022-12-29T02:09:47;96878.06;;;16.02;100.00
8697;BME280;4385;48.848;8.924;2022-12-29T02:12:14;96869.59;;;16.03;100.00
8697;BME280;4385;48.848;8.924;2022-12-29T02:14:39;96871.25;;;16.04;100.00
8697;BME280;4385;48.848;8.924;2022-12-29T02:17:22;96860.25;;;16.04;100.00
8697;BME280;4385;48.848;8.924;2022-12-29T02:20:18;96876.34;;;16.04;100.00
8697;BME280;4385;48.848;8.924;2022-12-29T02:23:20;96872.09;;;16.05;100.00
8697;BME280;4385;48.848;8.924;2022-12-29T02:26:25;96871.25;;;16.04;100.00
8697;BME280;4385;48.848;8.924;2022-12-29T02:32:07;96871.25;;;16.04;100.00
8697;BME280;4385;48.848;8.924;2022-12-29T02:34:44;96861.94;;;16.05;100.00
8697;BME280;4385;48.848;8.924;2022-12-29T02:39:59;96862.75;;;16.05;100.00
8697;BME280;4385;48.848;8.924;2022-12-29T02:42:35;96859.34;;;16.06;100.00
8697;BME280;4385;48.848;8.924;2022-12-29T02:50:35;96858.50;;;16.06;100.00
8697;BME280;4385;48.848;8.924;2022-12-29T02:53:05;96844.09;;;16.06;100.00
8697;BME280;4385;48.848;8.924;2022-12-29T02:55:31;96843.22;;;16.07;100.00
8697;BME280;4385;48.848;8.924;2022-12-29T02:58:16;96844.88;;;16.08;100.00
8697;BME280;4385;48.848;8.924;2022-12-29T03:03:33;96857.59;;;16.08;100.00
8697;BME280;4385;48.848;8.924;2022-12-29T03:06:22;96844.06;;;16.08;100.00
8697;BME280;4385;48.848;8.924;2022-12-29T03:09:00;96845.78;;;16.07;100.00
8697;BME280;4385;48.848;8.924;2022-12-29T03:11:33;96850.00;;;16.07;100.00
8697;BME280;4385;48.848;8.924;2022-12-29T03:17:35;96854.25;;;16.08;100.00
8697;BME280;4385;48.848;8.924;2022-12-29T03:20:07;96851.69;;;16.08;100.00
8697;BME280;4385;48.848;8.924;2022-12-29T03:22:35;96847.44;;;16.08;100.00
8697;BME280;4385;48.848;8.924;2022-12-29T03:25:08;96845.78;;;16.07;100.00
8697;BME280;4385;48.848;8.924;2022-12-29T03:27:39;96844.88;;;16.08;100.00
8697;BME280;4385;48.848;8.924;2022-12-29T03:30:06;96833.94;;;16.06;100.00
8697;BME280;4385;48.848;8.924;2022-12-29T03:32:36;96838.13;;;16.09;100.00
8697;BME280;4385;48.848;8.924;2022-12-29T03:35:05;96822.03;;;16.08;100.00
8697;BME280;4385;48.848;8.924;2022-12-29T03:37:39;96819.47;;;16.08;100.00
8697;BME280;4385;48.848;8.924;2022-12-29T03:40:06;96820.34;;;16.07;100.00
8697;BME280;4385;48.848;8.924;2022-12-29T03:42:34;96816.94;;;16.08;100.00
8697;BME280;4385;48.848;8.924;2022-12-29T03:45:00;96827.94;;;16.09;100.00
8697;BME280;4385;48.848;8.924;2022-12-29T03:47:25;96829.72;;;16.05;100.00
8697;BME280;4385;48.848;8.924;2022-12-29T03:49:51;96828.88;;;16.06;100.00
8697;BME280;4385;48.848;8.924;2022-12-29T03:52:17;96828.88;;;16.06;100.00
8697;BME280;4385;48.848;8.924;2022-12-29T03:54:42;96827.16;;;16.05;100.00
8697;BME280;4385;48.848;8.924;2022-12-29T03:57:09;96826.31;;;16.06;100.00
8697;BME280;4385;48.848;8.924;2022-12-29T03:59:34;96829.72;;;16.05;100.00
8697;BME280;4385;48.848;8.924;2022-12-29T04:01:59;96822.94;;;16.06;100.00
8697;BME280;4385;48.848;8.924;2022-12-29T04:04:24;96825.47;;;16.06;100.00
8697;BME280;4385;48.848;8.924;2022-12-29T04:06:50;96828.88;;;16.06;100.00
8697;BME280;4385;48.848;8.924;2022-12-29T04:09:15;96833.06;;;16.07;100.00
8697;BME280;4385;48.848;8.924;2022-12-29T04:11:40;96836.44;;;16.08;100.00
8697;BME280;4385;48.848;8.924;2022-12-29T04:14:06;96839.81;;;16.08;100.00
8697;BME280;4385;48.848;8.924;2022-12-29T04:16:31;96836.44;;;16.08;100.00
8697;BME280;4385;48.848;8.924;2022-12-29T04:18:56;96837.25;;;16.08;100.00
8697;BME280;4385;48.848;8.924;2022-12-29T04:21:21;96834.72;;;16.08;100.00
8697;BME280;4385;48.848;8.924;2022-12-29T04:23:47;96830.50;;;16.09;100.00
8697;BME280;4385;48.848;8.924;2022-12-29T04:26:12;96833.88;;;16.10;100.00
8697;BME280;4385;48.848;8.924;2022-12-29T04:28:38;96823.72;;;16.10;100.00
8697;BME280;4385;48.848;8.924;2022-12-29T04:31:04;96816.09;;;16.10;100.00
8697;BME280;4385;48.848;8.924;2022-12-29T04:33:30;96823.75;;;16.08;100.00
8697;BME280;4385;48.848;8.924;2022-12-29T04:35:55;96819.47;;;16.08;100.00
8697;BME280;4385;48.848;8.924;2022-12-29T04:38:22;96808.53;;;16.06;100.00
8697;BME280;4385;48.848;8.924;2022-12-29T04:40:48;96802.56;;;16.07;100.00
8697;BME280;4385;48.848;8.924;2022-12-29T04:43:14;96814.44;;;16.07;100.00
8697;BME280;4385;48.848;8.924;2022-12-29T04:45:43;96798.38;;;16.06;100.00
8697;BME280;4385;48.848;8.924;2022-12-29T04:48:09;96806.84;;;16.05;100.00
8697;BME280;4385;48.848;8.924;2022-12-29T04:50:34;96805.16;;;16.06;100.00
8697;BME280;4385;48.848;8.924;2022-12-29T04:53:00;96804.25;;;16.07;100.00
8697;BME280;4385;48.848;8.924;2022-12-29T04:55:25;96802.59;;;16.06;100.00
8697;BME280;4385;48.848;8.924;2022-12-29T04:57:50;96791.59;;;16.05;100.00
8697;BME280;4385;48.848;8.924;2022-12-29T05:00:16;96796.69;;;16.05;100.00
8697;BME280;4385;48.848;8.924;2022-12-29T05:02:41;96797.53;;;16.06;100.00
8697;BME280;4385;48.848;8.924;2022-12-29T05:05:07;96806.84;;;16.05;100.00
8697;BME280;4385;48.848;8.924;2022-12-29T05:07:32;96802.59;;;16.06;100.00
8697;BME280;4385;48.848;8.924;2022-12-29T05:09:58;96799.19;;;16.07;100.00
8697;BME280;4385;48.848;8.924;2022-12-29T05:12:24;96789.84;;;16.07;100.00
8697;BME280;4385;48.848;8.924;2022-12-29T05:14:49;96797.47;;;16.07;100.00
8697;BME280;4385;48.848;8.924;2022-12-29T05:17:14;96801.72;;;16.07;100.00
8697;BME280;4385;48.848;8.924;2022-12-29T05:19:39;96811.03;;;16.08;100.00
8697;BME280;4385;48.848;8.924;2022-12-29T05:22:05;96808.53;;;16.06;100.00
8697;BME280;4385;48.848;8.924;2022-12-29T05:24:30;96816.13;;;16.08;100.00
8697;BME280;4385;48.848;8.924;2022-12-29T05:26:55;96805.91;;;16.10;100.00
8697;BME280;4385;48.848;8.924;2022-12-29T05:29:21;96805.03;;;16.11;100.00
8697;BME280;4385;48.848;8.924;2022-12-29T05:31:46;96807.53;;;16.12;100.00
8697;BME280;4385;48.848;8.924;2022-12-29T05:34:11;96802.47;;;16.12;100.00
8697;BME280;4385;48.848;8.924;2022-12-29T05:36:37;96813.47;;;16.13;100.00
8697;BME280;4385;48.848;8.924;2022-12-29T05:39:03;96818.53;;;16.14;100.00
8697;BME280;4385;48.848;8.924;2022-12-29T05:41:28;96822.72;;;16.15;100.00
8697;BME280;4385;48.848;8.924;2022-12-29T05:43:53;96819.28;;;16.16;100.00
8697;BME280;4385;48.848;8.924;2022-12-29T05:46:18;96821.81;;;16.18;100.00
8697;BME280;4385;48.848;8.924;2022-12-29T05:48:44;96814.19;;;16.18;100.00
8697;BME280;4385;48.848;8.924;2022-12-29T05:51:09;96815.03;;;16.18;100.00
8697;BME280;4385;48.848;8.924;2022-12-29T05:53:34;96809.94;;;16.18;100.00
8697;BME280;4385;48.848;8.924;2022-12-29T05:55:59;96808.25;;;16.19;100.00
8697;BME280;4385;48.848;8.924;2022-12-29T05:58:25;96797.19;;;16.20;100.00
8697;BME280;4385;48.848;8.924;2022-12-29T06:00:50;96786.13;;;16.21;100.00
8697;BME280;4385;48.848;8.924;2022-12-29T06:03:16;96781.06;;;16.21;100.00
8697;BME280;4385;48.848;8.924;2022-12-29T06:05:41;96789.50;;;16.23;100.00
8697;BME280;4385;48.848;8.924;2022-12-29T06:08:06;96798.78;;;16.24;100.00
8697;BME280;4385;48.848;8.924;2022-12-29T06:10:31;96803.00;;;16.25;100.00
8697;BME280;4385;48.848;8.924;2022-12-29T06:12:57;96807.19;;;16.28;100.00
8697;BME280;4385;48.848;8.924;2022-12-29T06:15:22;96813.91;;;16.29;100.00
8697;BME280;4385;48.848;8.924;2022-12-29T06:17:47;96809.69;;;16.29;100.00
8697;BME280;4385;48.848;8.924;2022-12-29T06:20:13;96811.34;;;16.30;100.00
8697;BME280;4385;48.848;8.924;2022-12-29T06:22:38;96808.75;;;16.32;100.00
8697;BME280;4385;48.848;8.924;2022-12-29T06:25:04;96804.53;;;16.32;100.00
8697;BME280;4385;48.848;8.924;2022-12-29T06:27:30;96807.03;;;16.34;100.00
8697;BME280;4385;48.848;8.924;2022-12-29T06:29:55;96801.09;;;16.33;100.00
8697;BME280;4385;48.848;8.924;2022-12-29T06:32:21;96797.69;;;16.35;100.00
8697;BME280;4385;48.848;8.924;2022-12-29T06:34:46;96790.84;;;16.37;100.00
8697;BME280;4385;48.848;8.924;2022-12-29T06:37:11;96794.28;;;16.36;100.00
8697;BME280;4385;48.848;8.924;2022-12-29T06:39:36;96808.69;;;16.35;100.00
8697;BME280;4385;48.848;8.924;2022-12-29T06:42:02;96800.28;;;16.33;100.00
8697;BME280;4385;48.848;8.924;2022-12-29T06:44:27;96804.53;;;16.32;100.00
8697;BME280;4385;48.848;8.924;2022-12-29T06:46:53;96806.19;;;16.33;100.00
8697;BME280;4385;48.848;8.924;2022-12-29T06:49:18;96804.53;;;16.32;100.00
8697;BME280;4385;48.848;8.924;2022-12-29T06:51:43;96804.53;;;16.32;100.00
8697;BME280;4385;48.848;8.924;2022-12-29T06:54:09;96810.50;;;16.31;100.00
8697;BME280;4385;48.848;8.924;2022-12-29T06:56:34;96804.53;;;16.32;100.00
8697;BME280;4385;48.848;8.924;2022-12-29T06:58:59;96804.53;;;16.32;100.00
8697;BME280;4385;48.848;8.924;2022-12-29T07:01:27;96790.13;;;16.33;100.00
8697;BME280;4385;48.848;8.924;2022-12-29T07:03:53;96792.63;;;16.35;100.00
8697;BME280;4385;48.848;8.924;2022-12-29T07:06:18;96790.84;;;16.37;100.00
8697;BME280;4385;48.848;8.924;2022-12-29T07:08:43;96781.53;;;16.37;100.00
8697;BME280;4385;48.848;8.924;2022-12-29T07:11:09;96790.00;;;16.38;100.00
8697;BME280;4385;48.848;8.924;2022-12-29T07:13:34;96799.28;;;16.39;100.00
8697;BME280;4385;48.848;8.924;2022-12-29T07:16:05;96795.84;;;16.40;100.00
8697;BME280;4385;48.848;8.924;2022-12-29T07:18:30;96808.56;;;16.40;100.00
8697;BME280;4385;48.848;8.924;2022-12-29T07:20:55;96808.53;;;16.41;100.00
8697;BME280;4385;48.848;8.924;2022-12-29T07:23:20;96800.88;;;16.43;100.00
8697;BME280;4385;48.848;8.924;2022-12-29T07:25:46;96802.56;;;16.44;100.00
8697;BME280;4385;48.848;8.924;2022-12-29T07:28:12;96802.56;;;16.44;100.00
8697;BME280;4385;48.848;8.924;2022-12-29T07:30:37;96805.97;;;16.43;100.00
8697;BME280;4385;48.848;8.924;2022-12-29T07:33:03;96800.88;;;16.43;100.00
8697;BME280;4385;48.848;8.924;2022-12-29T07:35:28;96798.31;;;16.43;100.00
8697;BME280;4385;48.848;8.924;2022-12-29T07:37:53;96810.22;;;16.42;100.00
8697;BME280;4385;48.848;8.924;2022-12-29T07:40:19;96811.06;;;16.41;100.00
8697;BME280;4385;48.848;8.924;2022-12-29T07:42:44;96821.28;;;16.40;100.00
8697;BME280;4385;48.848;8.924;2022-12-29T07:45:10;96816.19;;;16.40;100.00
8697;BME280;4385;48.848;8.924;2022-12-29T07:47:35;96817.94;;;16.39;100.00
8697;BME280;4385;48.848;8.924;2022-12-29T07:50:00;96817.97;;;16.38;100.00
8697;BME280;4385;48.848;8.924;2022-12-29T07:52:26;96823.06;;;16.38;100.00
8697;BME280;4385;48.848;8.924;2022-12-29T07:54:51;96817.97;;;16.38;100.00
8697;BME280;4385;48.848;8.924;2022-12-29T07:57:16;96823.84;;;16.40;100.00
8697;BME280;4385;48.848;8.924;2022-12-29T07:59:41;96828.06;;;16.41;100.00
8697;BME280;4385;48.848;8.924;2022-12-29T08:02:10;96824.63;;;16.42;100.00
8697;BME280;4385;48.848;8.924;2022-12-29T08:04:36;96833.88;;;16.44;100.00
8697;BME280;4385;48.848;8.924;2022-12-29T08:07:01;96839.81;;;16.45;100.00
8697;BME280;4385;48.848;8.924;2022-12-29T08:09:26;96835.56;;;16.45;100.00
8697;BME280;4385;48.848;8.924;2022-12-29T08:11:53;96838.94;;;16.46;100.00
8697;BME280;4385;48.848;8.924;2022-12-29T08:14:19;96841.47;;;16.46;100.00
8697;BME280;4385;48.848;8.924;2022-12-29T08:16:44;96838.91;;;16.48;100.00
8697;BME280;4385;48.848;8.924;2022-12-29T08:19:11;96836.31;;;16.49;100.00
8697;BME280;4385;48.848;8.924;2022-12-29T08:21:36;96834.63;;;16.50;100.00
8697;BME280;4385;48.848;8.924;2022-12-29T08:24:02;96843.09;;;16.50;100.00
8697;BME280;4385;48.848;8.924;2022-12-29T08:26:27;96828.66;;;16.51;100.00
8697;BME280;4385;48.848;8.924;2022-12-29T08:28:53;96824.41;;;16.51;100.00
8697;BME280;4385;48.848;8.924;2022-12-29T08:31:19;96817.66;;;16.50;100.00
8697;BME280;4385;48.848;8.924;2022-12-29T08:33:44;96819.38;;;16.50;100.00
8697;BME280;4385;48.848;8.924;2022-12-29T08:36:09;96827.84;;;16.50;100.00
8697;BME280;4385;48.848;8.924;2022-12-29T08:38:35;96832.03;;;16.51;100.00
8697;BME280;4385;48.848;8.924;2022-12-29T08:41:00;96823.56;;;16.51;100.00
8697;BME280;4385;48.848;8.924;2022-12-29T08:43:28;96834.59;;;16.51;100.00
8697;BME280;4385;48.848;8.924;2022-12-29T08:45:53;96836.31;;;16.49;100.00
8697;BME280;4385;48.848;8.924;2022-12-29T08:48:19;96834.66;;;16.48;100.00
8697;BME280;4385;48.848;8.924;2022-12-29T08:50:47;96834.66;;;16.48;100.00
8697;BME280;4385;48.848;8.924;2022-12-29T08:53:13;96839.75;;;16.48;100.00
8697;BME280;4385;48.848;8.924;2022-12-29T08:55:38;96839.75;;;16.48;100.00
8697;BME280;4385;48.848;8.924;2022-12-29T08:58:03;96849.03;;;16.49;100.00
8697;BME280;4385;48.848;8.924;2022-12-29T09:00:29;96847.34;;;16.50;100.00
8697;BME280;4385;48.848;8.924;2022-12-29T09:02:54;96848.19;;;16.50;100.00
8697;BME280;4385;48.848;8.924;2022-12-29T09:05:20;96853.28;;;16.50;100.00
8697;BME280;4385;48.848;8.924;2022-12-29T09:07:45;96854.94;;;16.51;100.00
8697;BME280;4385;48.848;8.924;2022-12-29T09:10:10;96863.38;;;16.53;100.00
8697;BME280;4385;48.848;8.924;2022-12-29T09:12:35;96858.28;;;16.53;100.00
8697;BME280;4385;48.848;8.924;2022-12-29T09:15:01;96858.28;;;16.53;100.00
8697;BME280;4385;48.848;8.924;2022-12-29T09:17:26;96865.88;;;16.55;100.00
8697;BME280;4385;48.848;8.924;2022-12-29T09:20:18;96857.41;;;16.54;100.00
8697;BME280;4385;48.848;8.924;2022-12-29T09:22:44;96866.69;;;16.55;100.00
8697;BME280;4385;48.848;8.924;2022-12-29T09:25:10;96875.16;;;16.56;100.00
8697;BME280;4385;48.848;8.924;2022-12-29T09:27:36;96862.44;;;16.56;100.00
8697;BME280;4385;48.848;8.924;2022-12-29T09:30:06;96874.28;;;16.57;100.00
8697;BME280;4385;48.848;8.924;2022-12-29T09:32:33;96877.66;;;16.57;100.00
8697;BME280;4385;48.848;8.924;2022-12-29T09:34:58;96881.88;;;16.58;100.00
8697;BME280;4385;48.848;8.924;2022-12-29T09:37:24;96886.16;;;16.58;100.00
8697;BME280;4385;48.848;8.924;2022-12-29T09:39:49;96879.38;;;16.57;100.00
8697;BME280;4385;48.848;8.924;2022-12-29T09:47:25;96880.22;;;16.57;100.00
8697;BME280;4385;48.848;8.924;2022-12-29T09:50:04;96883.63;;;16.56;100.00
8697;BME280;4385;48.848;8.924;2022-12-29T09:52:39;96882.72;;;16.59;100.00
8697;BME280;4385;48.848;8.924;2022-12-29T09:55:13;96882.72;;;16.59;100.00
8697;BME280;4385;48.848;8.924;2022-12-29T09:57:46;96882.72;;;16.59;100.00
8697;BME280;4385;48.848;8.924;2022-12-29T10:02:43;96894.56;;;16.60;100.00
8697;BME280;4385;48.848;8.924;2022-12-29T10:05:39;96895.41;;;16.61;100.00
8697;BME280;4385;48.848;8.924;2022-12-29T10:10:59;96894.47;;;16.63;100.00
8697;BME280;4385;48.848;8.924;2022-12-29T10:16:16;96885.16;;;16.64;100.00
8697;BME280;4385;48.848;8.924;2022-12-29T10:23:59;96900.41;;;16.64;100.00
8697;BME280;4385;48.848;8.924;2022-12-29T10:26:28;96898.72;;;16.64;100.00
8697;BME280;4385;48.848;8.924;2022-12-29T10:28:59;96898.69;;;16.66;100.00
8697;BME280;4385;48.848;8.924;2022-12-29T10:31:36;96892.75;;;16.65;100.00
8697;BME280;4385;48.848;8.924;2022-12-29T10:34:07;96899.47;;;16.68;100.00
8697;BME280;4385;48.848;8.924;2022-12-29T10:36:44;96900.34;;;16.67;100.00
8697;BME280;4385;48.848;8.924;2022-12-29T10:39:29;96915.59;;;16.67;100.00
8697;BME280;4385;48.848;8.924;2022-12-29T10:42:04;96907.97;;;16.67;100.00
8697;BME280;4385;48.848;8.924;2022-12-29T10:44:34;96899.50;;;16.66;100.00
8697;BME280;4385;48.848;8.924;2022-12-29T10:47:08;96901.22;;;16.66;100.00
8697;BME280;4385;48.848;8.924;2022-12-29T10:49:40;96889.31;;;16.66;100.00
8697;BME280;4385;48.848;8.924;2022-12-29T10:52:08;96891.91;;;16.65;100.00
8697;BME280;4385;48.848;8.924;2022-12-29T10:55:00;96883.44;;;16.64;100.00
8697;BME280;4385;48.848;8.924;2022-12-29T10:57:36;96880.91;;;16.64;100.00
8697;BME280;4385;48.848;8.924;2022-12-29T11:00:14;96883.44;;;16.64;100.00
8697;BME280;4385;48.848;8.924;2022-12-29T11:06:02;96888.50;;;16.66;100.00
8697;BME280;4385;48.848;8.924;2022-12-29T11:08:38;96893.59;;;16.66;100.00
8697;BME280;4385;48.848;8.924;2022-12-29T11:11:09;96886.78;;;16.66;100.00
8697;BME280;4385;48.848;8.924;2022-12-29T11:14:13;96899.50;;;16.66;100.00
8697;BME280;4385;48.848;8.924;2022-12-29T11:16:40;96896.91;;;16.68;100.00
8697;BME280;4385;48.848;8.924;2022-12-29T11:19:22;96893.53;;;16.69;100.00
8697;BME280;4385;48.848;8.924;2022-12-29T11:21:48;96888.44;;;16.69;100.00
8697;BME280;4385;48.848;8.924;2022-12-29T11:24:25;96893.53;;;16.69;100.00
8697;BME280;4385;48.848;8.924;2022-12-29T11:26:55;96896.06;;;16.69;100.00
8697;BME280;4385;48.848;8.924;2022-12-29T11:29:28;96893.44;;;16.72;100.00
8697;BME280;4385;48.848;8.924;2022-12-29T11:31:56;96906.16;;;16.72;100.00
8697;BME280;4385;48.848;8.924;2022-12-29T11:34:32;96904.47;;;16.71;100.00
8697;BME280;4385;48.848;8.924;2022-12-29T11:37:02;96907.88;;;16.72;100.00
8697;BME280;4385;48.848;8.924;2022-12-29T11:39:32;96892.59;;;16.72;100.00
8697;BME280;4385;48.848;8.924;2022-12-29T11:41:58;96896.84;;;16.71;100.00
8697;BME280;4385;48.848;8.924;2022-12-29T11:44:24;96903.63;;;16.72;100.00
8697;BME280;4385;48.848;8.924;2022-12-29T11:46:51;96915.47;;;16.73;100.00
8697;BME280;4385;48.848;8.924;2022-12-29T11:49:23;96906.16;;;16.72;100.00
8697;BME280;4385;48.848;8.924;2022-12-29T11:51:51;96913.78;;;16.72;100.00
8697;BME280;4385;48.848;8.924;2022-12-29T11:54:25;96902.78;;;16.72;100.00
8697;BME280;4385;48.848;8.924;2022-12-29T11:56:52;96901.88;;;16.73;100.00
8697;BME280;4385;48.848;8.924;2022-12-29T12:01:58;96893.38;;;16.75;100.00
8697;BME280;4385;48.848;8.924;2022-12-29T12:04:26;96887.41;;;16.76;100.00
8697;BME280;4385;48.848;8.924;2022-12-29T12:07:15;96881.41;;;16.77;100.00
8697;BME280;4385;48.848;8.924;2022-12-29T12:09:50;96894.09;;;16.79;100.00
8697;BME280;4385;48.848;8.924;2022-12-29T12:12:39;96890.75;;;16.78;100.00
8697;BME280;4385;48.848;8.924;2022-12-29T12:15:13;96891.53;;;16.80;100.00
8697;BME280;4385;48.848;8.924;2022-12-29T12:20:19;96899.13;;;16.82;100.00
8697;BME280;4385;48.848;8.924;2022-12-29T12:23:12;96898.31;;;16.81;100.00
8697;BME280;4385;48.848;8.924;2022-12-29T12:25:50;96894.88;;;16.82;100.00
8697;BME280;4385;48.848;8.924;2022-12-29T12:28:28;96884.69;;;16.82;100.00
8697;BME280;4385;48.848;8.924;2022-12-29T12:30:58;96896.53;;;16.83;100.00
8697;BME280;4385;48.848;8.924;2022-12-29T12:33:32;96875.38;;;16.83;100.00
8697;BME280;4385;48.848;8.924;2022-12-29T12:36:22;96870.28;;;16.83;100.00
8697;BME280;4385;48.848;8.924;2022-12-29T12:55:45;96851.59;;;16.84;100.00
8697;BME280;4385;48.848;8.924;2022-12-29T13:06:42;96856.63;;;16.86;100.00
8697;BME280;4385;48.848;8.924;2022-12-29T13:17:40;96842.16;;;16.88;100.00
8697;BME280;4385;48.848;8.924;2022-12-29T13:20:36;96843.81;;;16.89;100.00
8697;BME280;4385;48.848;8.924;2022-12-29T13:23:20;96831.94;;;16.89;100.00
8697;BME280;4385;48.848;8.924;2022-12-29T13:31:04;96835.34;;;16.88;100.00
8697;BME280;4385;48.848;8.924;2022-12-29T13:34:01;96832.81;;;16.88;100.00
8697;BME280;4385;48.848;8.924;2022-12-29T13:36:54;96839.63;;;16.88;100.00
8697;BME280;4385;48.848;8.924;2022-12-29T13:39:29;96847.25;;;16.88;100.00
8697;BME280;4385;48.848;8.924;2022-12-29T13:41:56;96842.16;;;16.88;100.00
8697;BME280;4385;48.848;8.924;2022-12-29T13:44:28;96843.03;;;16.87;100.00
8697;BME280;4385;48.848;8.924;2022-12-29T13:46:59;96843.91;;;16.86;100.00
8697;BME280;4385;48.848;8.924;2022-12-29T13:49:26;96844.75;;;16.86;100.00
8697;BME280;4385;48.848;8.924;2022-12-29T13:51:56;96837.13;;;16.86;100.00
8697;BME280;4385;48.848;8.924;2022-12-29T13:54:42;96842.22;;;16.86;100.00
8697;BME280;4385;48.848;8.924;2022-12-29T13:57:34;96834.53;;;16.88;100.00
8697;BME280;4385;48.848;8.924;2022-12-29T14:00:21;96839.59;;;16.89;100.00
8697;BME280;4385;48.848;8.924;2022-12-29T14:06:50;96850.56;;;16.90;100.00
8697;BME280;4385;48.848;8.924;2022-12-29T14:08:54;96859.00;;;16.92;100.00
8697;BME280;4385;48.848;8.924;2022-12-29T14:11:22;96857.34;;;16.91;100.00
8697;BME280;4385;48.848;8.924;2022-12-29T14:13:50;96855.59;;;16.93;100.00
8697;BME280;4385;48.848;8.924;2022-12-29T14:16:42;96861.56;;;16.92;100.00
8697;BME280;4385;48.848;8.924;2022-12-29T14:19:19;96871.75;;;16.92;100.00
8697;BME280;4385;48.848;8.924;2022-12-29T14:22:01;96863.25;;;16.91;100.00
8697;BME280;4385;48.848;8.924;2022-12-29T14:24:39;96866.66;;;16.92;100.00
8697;BME280;4385;48.848;8.924;2022-12-29T14:34:56;96856.56;;;16.89;100.00
8697;BME280;4385;48.848;8.924;2022-12-29T14:37:32;96852.31;;;16.89;100.00
8697;BME280;4385;48.848;8.924;2022-12-29T14:40:25;96858.22;;;16.90;100.00
8697;BME280;4385;48.848;8.924;2022-12-29T14:42:54;96861.59;;;16.90;100.00
8697;BME280;4385;48.848;8.924;2022-12-29T14:47:47;96859.09;;;16.89;100.00
8697;BME280;4385;48.848;8.924;2022-12-29T14:52:48;96855.66;;;16.90;100.00
8697;BME280;4385;48.848;8.924;2022-12-29T14:57:42;96858.22;;;16.90;100.00
8697;BME280;4385;48.848;8.924;2022-12-29T15:00:14;96862.44;;;16.91;100.00
8697;BME280;4385;48.848;8.924;2022-12-29T15:02:45;96843.75;;;16.92;100.00
8697;BME280;4385;48.848;8.924;2022-12-29T15:05:24;96847.94;;;16.93;100.00
8697;BME280;4385;48.848;8.924;2022-12-29T15:07:53;96846.22;;;16.95;100.00
8697;BME280;4385;48.848;8.924;2022-12-29T15:10:21;96838.56;;;16.95;100.00